Aviation Digital Data Service (ADDS)

Output produced by TAFs form (0930 UTC 17 October 2017)
found at http://www.aviationweather.gov/adds/tafs/
 
KGNV 170853Z AUTO 04011G18KT 10SM OVC014 20/17 A3008 RMK AO2 SLP182 T02000172 52007
KGNV 170538Z 1706/1806 02008KT P6SM VCSH FEW025 SCT050 BKN100 
     TEMPO 1706/1707 BKN025 
     FM170700 01010KT P6SM VCSH OVC020 
     FM171500 03012G22KT P6SM OVC015 
     FM171800 04011G17KT P6SM SCT025 BKN040 
     FM180000 03008KT P6SM SCT025